Goree, Texas
Current Conditions -  °F | °C
As of 11:36 AM on Friday 31 Oct 2014 (Local Time) from KF05 Reporting Station
Clear Clear  
Wind Chill: 57°   Ceiling: Unl
Heat Index: 57°   Visibility: 10mi
Dew Point: 37°   Wind: 13mph
Humidity: 48%   Direction: 50°NE
Pressure: 30.46"   Gusts: 18mph
Location:  33.47°N, 99.52°W
Report Text: KF05 311636Z AUTO 05011G16KT 10SM CLR 14/03 A3046 RMK AO2
Loading
Personal Weather Stations






























Interactive Weather Map
Tropical Storm Tracking
New forecast layout! Learn more

10-Day Weather Forecast

Advertisements
Track Severe Weather on mobile